createdAt,value
2019-02-21T00:01:58.544Z,22.07
2019-02-21T00:03:59.385Z,22.13
2019-02-21T00:06:00.233Z,23.03
2019-02-21T00:08:01.060Z,21.93
2019-02-21T00:10:01.918Z,21.03
2019-02-21T00:12:02.765Z,20.33
2019-02-21T00:14:03.620Z,19.97
2019-02-21T00:16:04.658Z,19.63
2019-02-21T00:18:05.481Z,20.00
2019-02-21T00:20:06.340Z,20.17
2019-02-21T00:22:07.476Z,20.87
2019-02-21T00:24:08.765Z,21.90
2019-02-21T00:26:09.605Z,21.17
2019-02-21T00:28:10.468Z,20.97
2019-02-21T00:30:11.320Z,21.50
2019-02-21T00:32:12.172Z,20.73
2019-02-21T00:34:13.402Z,21.77
2019-02-21T00:36:14.241Z,19.23
2019-02-21T00:38:15.073Z,18.90
2019-02-21T00:40:15.924Z,18.00
2019-02-21T00:42:16.780Z,18.00
2019-02-21T00:44:17.629Z,17.87
2019-02-21T00:46:18.481Z,17.07
2019-02-21T00:48:19.312Z,18.10
2019-02-21T00:50:20.438Z,19.13
2019-02-21T00:52:21.294Z,17.63
2019-02-21T00:54:22.412Z,18.97
2019-02-21T00:56:23.563Z,18.90
2019-02-21T00:58:24.719Z,18.83
2019-02-21T01:00:25.563Z,18.17
2019-02-21T01:02:26.403Z,17.23
2019-02-21T01:04:27.240Z,18.20
2019-02-21T01:06:28.076Z,18.17
2019-02-21T01:08:28.925Z,16.87
2019-02-21T01:10:29.782Z,18.43
2019-02-21T01:12:30.632Z,18.33
2019-02-21T01:14:31.785Z,18.97
2019-02-21T01:16:32.725Z,19.13
2019-02-21T01:18:33.573Z,18.03
2019-02-21T01:20:34.672Z,19.23
2019-02-21T01:22:35.528Z,19.83
2019-02-21T01:24:36.397Z,22.03
2019-02-21T01:26:37.580Z,20.43
2019-02-21T01:28:38.429Z,20.27
2019-02-21T01:30:39.255Z,20.60
2019-02-21T01:32:40.093Z,18.93
2019-02-21T01:34:40.932Z,19.37
2019-02-21T01:36:41.779Z,18.80
2019-02-21T01:38:42.616Z,19.37
2019-02-21T01:40:43.572Z,18.33
2019-02-21T01:42:44.414Z,19.07
2019-02-21T01:44:45.229Z,20.50
2019-02-21T01:46:46.073Z,20.63
2019-02-21T01:48:46.908Z,20.30
2019-02-21T01:50:47.821Z,19.43
2019-02-21T01:52:48.813Z,19.53
2019-02-21T01:54:49.668Z,19.50
2019-02-21T01:56:50.517Z,20.07
2019-02-21T01:58:51.353Z,21.77
2019-02-21T02:00:52.181Z,20.07
2019-02-21T02:02:53.025Z,18.87
2019-02-21T02:04:53.872Z,19.30
2019-02-21T02:06:54.708Z,18.83
2019-02-21T02:08:55.544Z,19.10
2019-02-21T02:10:56.629Z,19.20
2019-02-21T02:12:57.789Z,18.73
2019-02-21T02:14:58.621Z,19.97
2019-02-21T02:16:59.473Z,18.97
2019-02-21T02:19:00.314Z,19.33
2019-02-21T02:21:01.152Z,19.43
2019-02-21T02:23:02.017Z,18.50
2019-02-21T02:25:02.861Z,19.07
2019-02-21T02:27:03.693Z,20.30
2019-02-21T02:29:04.549Z,19.10
2019-02-21T02:31:05.427Z,19.03
2019-02-21T02:33:06.341Z,20.87
2019-02-21T02:35:07.185Z,22.63
2019-02-21T02:37:08.289Z,20.50
2019-02-21T02:39:09.333Z,21.43
2019-02-21T02:41:10.277Z,21.60
2019-02-21T02:43:11.204Z,21.10
2019-02-21T02:45:12.164Z,20.90
2019-02-21T02:47:13.276Z,19.73
2019-02-21T02:49:14.140Z,20.57
2019-02-21T02:51:14.977Z,22.50
2019-02-21T02:53:15.806Z,21.50
2019-02-21T02:55:16.657Z,20.70
2019-02-21T02:57:17.487Z,20.17
2019-02-21T02:59:18.325Z,20.30
2019-02-21T03:01:19.195Z,19.17
2019-02-21T03:03:20.013Z,18.60
2019-02-21T03:05:20.865Z,19.60
2019-02-21T03:07:21.695Z,18.17
2019-02-21T03:09:22.524Z,18.27
2019-02-21T03:11:23.369Z,18.93
2019-02-21T03:13:24.304Z,18.10
2019-02-21T03:15:25.148Z,20.07
2019-02-21T03:17:26.009Z,18.47
2019-02-21T03:19:26.839Z,19.13
2019-02-21T03:21:27.673Z,18.93
2019-02-21T03:23:28.522Z,19.67
2019-02-21T03:25:29.401Z,21.03
2019-02-21T03:27:30.270Z,20.13
2019-02-21T03:29:31.213Z,20.53
2019-02-21T03:31:32.305Z,20.67
2019-02-21T03:33:33.321Z,20.77
2019-02-21T03:35:34.245Z,20.87
2019-02-21T03:37:35.485Z,23.50
2019-02-21T03:39:36.305Z,22.50
2019-02-21T03:41:37.140Z,22.67
2019-02-21T03:43:37.985Z,22.00
2019-02-21T03:45:38.825Z,21.70
2019-02-21T03:47:39.914Z,22.63
2019-02-21T03:49:40.753Z,21.30
2019-02-21T03:51:41.608Z,22.50
2019-02-21T03:53:42.436Z,21.43
2019-02-21T03:55:43.269Z,22.90
2019-02-21T03:57:44.111Z,20.63
2019-02-21T03:59:44.964Z,21.30
2019-02-21T04:01:45.802Z,21.47
2019-02-21T04:03:46.747Z,21.07
2019-02-21T04:05:47.597Z,20.90
2019-02-21T04:07:48.457Z,21.50
2019-02-21T04:09:49.290Z,22.93
2019-02-21T04:11:50.119Z,23.07
2019-02-21T04:13:50.969Z,22.30
2019-02-21T04:15:51.905Z,23.13
2019-02-21T04:17:52.854Z,23.87
2019-02-21T04:19:53.693Z,25.33
2019-02-21T04:21:54.664Z,24.20
2019-02-21T04:23:55.608Z,23.97
2019-02-21T04:25:56.445Z,23.13
2019-02-21T04:27:57.268Z,21.90
2019-02-21T04:29:58.125Z,23.33
2019-02-21T04:31:58.971Z,22.27
2019-02-21T04:33:59.773Z,21.97
2019-02-21T04:36:00.616Z,21.93
2019-02-21T04:38:01.473Z,23.27
2019-02-21T04:40:02.317Z,22.17
2019-02-21T04:42:03.130Z,21.87
2019-02-21T04:44:04.241Z,21.07
2019-02-21T04:46:05.233Z,21.90
2019-02-21T04:48:06.072Z,21.73
2019-02-21T04:50:06.912Z,21.83
2019-02-21T04:52:07.745Z,21.57
2019-02-21T04:54:08.598Z,21.10
2019-02-21T04:56:09.428Z,21.83
2019-02-21T04:58:10.610Z,22.17
2019-02-21T05:00:11.469Z,22.30
2019-02-21T05:02:12.302Z,22.23
2019-02-21T05:04:13.128Z,21.83
2019-02-21T05:06:13.984Z,22.33
2019-02-21T05:08:14.820Z,22.40
2019-02-21T05:10:15.956Z,22.63
2019-02-21T05:12:16.808Z,22.23
2019-02-21T05:14:17.645Z,22.73
2019-02-21T05:16:18.504Z,22.13
2019-02-21T05:18:19.349Z,22.03
2019-02-21T05:20:20.162Z,21.93
2019-02-21T05:22:21.341Z,23.50
2019-02-21T05:24:22.178Z,22.80
2019-02-21T05:26:28.784Z,22.53
2019-02-21T05:28:30.928Z,21.63
2019-02-21T05:30:31.878Z,21.90
2019-02-21T05:32:43.537Z,21.00
2019-02-21T05:35:13.184Z,22.73
2019-02-21T05:37:33.664Z,21.03
2019-02-21T05:39:48.694Z,22.80
2019-02-21T05:42:04.841Z,23.30
2019-02-21T05:44:33.590Z,21.13
2019-02-21T05:46:45.521Z,21.80
2019-02-21T05:49:12.273Z,22.70
2019-02-21T05:51:21.533Z,21.80
2019-02-21T05:53:28.365Z,23.00
2019-02-21T05:56:00.899Z,23.13
2019-02-21T05:58:12.918Z,21.40
2019-02-21T06:00:32.480Z,21.93
2019-02-21T06:02:53.437Z,22.43
2019-02-21T06:05:29.638Z,20.77
2019-02-21T06:07:49.754Z,21.93
2019-02-21T06:10:03.375Z,21.93
2019-02-21T06:12:15.804Z,22.73
2019-02-21T06:14:36.171Z,21.97
2019-02-21T06:16:54.442Z,22.73
2019-02-21T06:19:04.580Z,22.40
2019-02-21T06:21:24.959Z,23.27
2019-02-21T06:23:39.509Z,23.70
2019-02-21T06:25:51.907Z,23.73
2019-02-21T06:28:08.385Z,24.77
2019-02-21T06:30:16.621Z,23.60
2019-02-21T06:32:17.466Z,24.83
2019-02-21T06:34:18.477Z,23.97
2019-02-21T06:36:19.884Z,23.77
2019-02-21T06:38:20.805Z,23.47
2019-02-21T06:40:21.632Z,22.80
2019-02-21T06:42:22.470Z,23.63
2019-02-21T06:44:23.334Z,23.80
2019-02-21T06:46:24.154Z,23.07
2019-02-21T06:48:24.980Z,24.10
2019-02-21T06:50:27.061Z,23.17
2019-02-21T06:52:28.177Z,23.67
2019-02-21T06:54:29.271Z,23.20
2019-02-21T06:56:30.116Z,23.00
2019-02-21T06:58:30.966Z,22.77
2019-02-21T07:00:32.144Z,23.97
2019-02-21T07:02:33.260Z,24.83
2019-02-21T07:04:34.096Z,24.63
2019-02-21T07:06:34.956Z,24.53
2019-02-21T07:08:35.797Z,23.80
2019-02-21T07:10:36.649Z,24.87
2019-02-21T07:12:37.494Z,25.50
2019-02-21T07:14:38.334Z,25.03
2019-02-21T07:16:39.213Z,23.70
2019-02-21T07:18:40.816Z,25.40
2019-02-21T07:20:41.894Z,24.20
2019-02-21T07:22:42.821Z,25.30
2019-02-21T07:24:45.474Z,25.63
2019-02-21T07:26:46.317Z,24.10
2019-02-21T07:28:47.160Z,25.10
2019-02-21T07:30:49.376Z,23.80
2019-02-21T07:32:50.208Z,24.10
2019-02-21T07:34:51.061Z,24.30
2019-02-21T07:36:51.896Z,26.83
2019-02-21T07:39:03.538Z,25.40
2019-02-21T07:40:55.516Z,24.97
2019-02-21T07:42:58.632Z,25.07
2019-02-21T07:44:59.786Z,25.70
2019-02-21T07:47:00.764Z,25.73
2019-02-21T07:49:01.945Z,25.10
2019-02-21T07:51:02.823Z,24.37
2019-02-21T07:53:03.736Z,27.80
2019-02-21T07:55:04.569Z,25.43
2019-02-21T07:57:05.413Z,26.10
2019-02-21T07:59:06.254Z,25.57
2019-02-21T08:01:07.101Z,25.93
2019-02-21T08:03:09.245Z,27.37
2019-02-21T08:05:10.289Z,26.00
2019-02-21T08:07:11.138Z,25.87
2019-02-21T08:09:11.974Z,25.17
2019-02-21T08:11:12.841Z,24.83
2019-02-21T08:13:13.761Z,25.47
2019-02-21T08:15:15.043Z,24.70
2019-02-21T08:17:16.364Z,26.40
2019-02-21T08:19:17.340Z,24.60
2019-02-21T08:21:18.282Z,23.57
2019-02-21T08:23:19.244Z,24.07
2019-02-21T08:25:20.266Z,23.93
2019-02-21T08:27:21.129Z,24.77
2019-02-21T08:29:21.961Z,24.17
2019-02-21T08:31:23.216Z,24.00
2019-02-21T08:33:42.281Z,25.27
2019-02-21T08:35:43.437Z,24.50
2019-02-21T08:37:44.288Z,26.63
2019-02-21T08:39:45.134Z,26.57
2019-02-21T08:41:45.989Z,26.70
2019-02-21T08:43:47.176Z,26.27
2019-02-21T08:45:48.041Z,26.00
2019-02-21T08:47:48.965Z,24.67
2019-02-21T08:49:49.793Z,24.37
2019-02-21T08:51:50.657Z,24.57
2019-02-21T08:53:51.481Z,24.93
2019-02-21T08:55:52.309Z,26.03
2019-02-21T08:57:53.166Z,24.70
2019-02-21T08:59:54.002Z,25.07
2019-02-21T09:01:54.858Z,25.60
2019-02-21T09:03:55.803Z,25.70
2019-02-21T09:05:56.756Z,24.33
2019-02-21T09:07:57.597Z,24.30
2019-02-21T09:09:58.429Z,25.33
2019-02-21T09:11:59.583Z,24.17
2019-02-21T09:14:00.960Z,26.20
2019-02-21T09:16:01.805Z,25.87
2019-02-21T09:18:02.660Z,27.57
2019-02-21T09:20:03.765Z,26.17
2019-02-21T09:22:04.626Z,26.47
2019-02-21T09:24:05.869Z,26.37
2019-02-21T09:26:06.714Z,25.20
2019-02-21T09:28:07.545Z,25.13
2019-02-21T09:30:08.406Z,24.67
2019-02-21T09:32:09.345Z,24.00
2019-02-21T09:34:20.640Z,24.47
2019-02-21T09:36:12.943Z,23.73
2019-02-21T09:38:13.795Z,23.17
2019-02-21T09:40:14.629Z,22.17
2019-02-21T09:42:15.480Z,22.97
2019-02-21T09:44:18.123Z,22.37
2019-02-21T09:46:19.082Z,22.27
2019-02-21T09:48:20.207Z,22.17
2019-02-21T09:50:21.037Z,22.87
2019-02-21T09:52:22.182Z,21.70
2019-02-21T09:54:23.029Z,21.97
2019-02-21T09:56:30.273Z,21.40
2019-02-21T09:58:26.628Z,21.03
2019-02-21T10:00:28.071Z,21.43
2019-02-21T10:02:28.932Z,21.10
2019-02-21T10:04:32.459Z,21.63
2019-02-21T10:06:32.531Z,20.27
2019-02-21T10:08:33.367Z,21.27
2019-02-21T10:10:34.220Z,20.20
2019-02-21T10:12:35.064Z,20.33
2019-02-21T10:14:35.900Z,20.27
2019-02-21T10:16:37.085Z,19.90
2019-02-21T10:18:37.913Z,19.23
2019-02-21T10:20:38.773Z,18.67
2019-02-21T10:22:39.693Z,18.80
2019-02-21T10:24:40.656Z,18.77
2019-02-21T10:26:41.769Z,19.90
2019-02-21T10:28:45.049Z,19.67
2019-02-21T10:30:45.387Z,19.47
2019-02-21T10:32:46.229Z,19.40
2019-02-21T10:34:47.733Z,18.87
2019-02-21T10:36:48.580Z,18.70
2019-02-21T10:38:49.427Z,19.07
2019-02-21T10:40:50.265Z,17.63
2019-02-21T10:42:51.425Z,18.70
2019-02-21T10:44:52.264Z,17.90
2019-02-21T10:46:53.182Z,17.10
2019-02-21T10:48:54.054Z,17.20
2019-02-21T10:50:54.893Z,17.30
2019-02-21T10:52:55.767Z,16.20
2019-02-21T10:54:56.764Z,17.23
2019-02-21T10:56:57.779Z,16.47
2019-02-21T10:58:58.635Z,15.97
2019-02-21T11:00:59.525Z,16.10
2019-02-21T11:03:00.406Z,16.03
2019-02-21T11:05:01.266Z,15.27
2019-02-21T11:07:02.373Z,16.80
2019-02-21T11:09:04.153Z,13.70
2019-02-21T11:11:04.992Z,15.23
2019-02-21T11:13:05.841Z,14.47
2019-02-21T11:15:06.692Z,17.27
2019-02-21T11:17:07.524Z,16.60
2019-02-21T11:19:08.661Z,17.13
2019-02-21T11:21:09.527Z,15.43
2019-02-21T11:23:10.376Z,16.90
2019-02-21T11:25:11.572Z,17.13
2019-02-21T11:27:12.414Z,15.63
2019-02-21T11:29:13.248Z,15.60
2019-02-21T11:31:14.129Z,15.40
2019-02-21T11:33:15.303Z,14.87
2019-02-21T11:35:16.145Z,14.87
2019-02-21T11:37:17.281Z,15.20
2019-02-21T11:39:18.121Z,15.03
2019-02-21T11:41:18.989Z,14.10
2019-02-21T11:43:19.833Z,14.87
2019-02-21T11:45:20.669Z,14.37
2019-02-21T11:47:21.850Z,13.93
2019-02-21T11:49:22.681Z,14.33
2019-02-21T11:51:23.513Z,13.50
2019-02-21T11:53:24.368Z,13.10
2019-02-21T11:55:25.206Z,13.30
2019-02-21T11:57:26.049Z,13.60
2019-02-21T11:59:26.886Z,14.27
2019-02-21T12:01:27.730Z,13.87
2019-02-21T12:03:28.931Z,14.27
2019-02-21T12:05:31.918Z,14.40
2019-02-21T12:07:32.549Z,14.70
2019-02-21T12:09:33.438Z,13.93
2019-02-21T12:11:34.291Z,13.87
2019-02-21T12:13:35.448Z,14.27
2019-02-21T12:15:36.297Z,14.23
2019-02-21T12:17:37.145Z,14.83
2019-02-21T12:19:38.357Z,13.83
2019-02-21T12:21:39.192Z,13.53
2019-02-21T12:23:40.056Z,13.30
2019-02-21T12:25:40.872Z,13.80
2019-02-21T12:27:41.968Z,14.00
2019-02-21T12:29:43.124Z,13.40
2019-02-21T12:31:43.984Z,14.13
2019-02-21T12:33:44.812Z,13.40
2019-02-21T12:35:45.918Z,13.13
2019-02-21T12:37:46.777Z,14.53
2019-02-21T12:39:47.896Z,13.43
2019-02-21T12:41:48.769Z,13.30
2019-02-21T12:43:49.601Z,14.03
2019-02-21T12:45:52.644Z,13.53
2019-02-21T12:47:54.218Z,13.73
2019-02-21T12:49:55.590Z,14.07
2019-02-21T12:51:57.460Z,13.60
2019-02-21T12:53:58.549Z,13.13
2019-02-21T12:55:59.400Z,14.10
2019-02-21T12:58:00.238Z,12.17
2019-02-21T13:00:01.108Z,12.77
2019-02-21T13:02:02.237Z,12.80
2019-02-21T13:04:03.099Z,12.80
2019-02-21T13:06:03.949Z,12.33
2019-02-21T13:08:04.780Z,12.50
2019-02-21T13:10:05.632Z,13.10
2019-02-21T13:12:06.458Z,13.20
2019-02-21T13:14:07.540Z,12.70
2019-02-21T13:16:08.417Z,12.73
2019-02-21T13:18:15.902Z,12.83
2019-02-21T13:20:12.059Z,14.47
2019-02-21T13:22:13.189Z,13.40
2019-02-21T13:24:14.026Z,14.10
2019-02-21T13:26:15.181Z,14.83
2019-02-21T13:28:16.020Z,13.47
2019-02-21T13:30:16.856Z,14.27
2019-02-21T13:32:17.741Z,14.87
2019-02-21T13:34:18.607Z,13.17
2019-02-21T13:36:19.509Z,14.17
2019-02-21T13:38:20.361Z,14.80
2019-02-21T13:40:21.543Z,13.60
2019-02-21T13:42:22.443Z,14.90
2019-02-21T13:44:23.562Z,13.87
2019-02-21T13:46:24.420Z,15.00
2019-02-21T13:48:25.249Z,15.20
2019-02-21T13:50:26.093Z,14.93
2019-02-21T13:52:27.226Z,14.63
2019-02-21T13:54:28.085Z,14.70
2019-02-21T13:56:28.945Z,15.00
2019-02-21T13:58:29.764Z,14.60
2019-02-21T14:00:30.620Z,14.97
2019-02-21T14:02:31.568Z,13.90
2019-02-21T14:04:32.398Z,14.50
2019-02-21T14:06:33.253Z,13.90
2019-02-21T14:08:34.072Z,14.80
2019-02-21T14:10:34.900Z,14.60
2019-02-21T14:12:35.744Z,14.27
2019-02-21T14:14:36.601Z,14.80
2019-02-21T14:16:46.194Z,14.03
2019-02-21T14:18:40.197Z,13.63
2019-02-21T14:20:45.486Z,14.53
2019-02-21T14:22:43.824Z,14.27
2019-02-21T14:24:44.669Z,15.23
2019-02-21T14:26:45.800Z,15.87
2019-02-21T14:28:46.646Z,15.07
2019-02-21T14:30:47.480Z,16.57
2019-02-21T14:32:48.332Z,16.20
2019-02-21T14:34:49.512Z,16.27
2019-02-21T14:36:50.348Z,15.97
2019-02-21T14:38:51.230Z,17.40
2019-02-21T14:40:52.348Z,17.90
2019-02-21T14:42:53.569Z,18.30
2019-02-21T14:44:54.428Z,17.53
2019-02-21T14:46:55.284Z,18.93
2019-02-21T14:48:56.124Z,18.80
2019-02-21T14:50:56.995Z,18.07
2019-02-21T14:52:57.814Z,18.73
2019-02-21T14:54:58.684Z,19.73
2019-02-21T14:56:59.583Z,18.17
2019-02-21T14:59:00.472Z,18.90
2019-02-21T15:01:01.329Z,18.67
2019-02-21T15:03:02.363Z,17.83
2019-02-21T15:05:03.497Z,18.93
2019-02-21T15:07:06.524Z,19.10
2019-02-21T15:09:07.105Z,18.47
2019-02-21T15:11:07.940Z,17.90
2019-02-21T15:13:09.146Z,17.83
2019-02-21T15:15:09.973Z,18.53
2019-02-21T15:17:11.361Z,18.47
2019-02-21T15:19:12.213Z,19.37
2019-02-21T15:21:13.080Z,18.90
2019-02-21T15:23:13.921Z,19.30
2019-02-21T15:25:14.749Z,18.83
2019-02-21T15:27:15.597Z,18.73
2019-02-21T15:29:16.431Z,18.10
2019-02-21T15:31:17.336Z,18.00
2019-02-21T15:33:18.213Z,18.50
2019-02-21T15:35:19.573Z,18.77
2019-02-21T15:37:20.973Z,17.90
2019-02-21T15:39:22.133Z,19.37
2019-02-21T15:41:22.968Z,18.40
2019-02-21T15:43:24.089Z,19.20
2019-02-21T15:45:24.967Z,19.00
2019-02-21T15:47:26.026Z,19.07
2019-02-21T15:49:26.944Z,18.70
2019-02-21T15:51:27.785Z,19.07
2019-02-21T15:53:28.661Z,18.47
2019-02-21T15:55:32.039Z,18.43
2019-02-21T15:57:32.261Z,19.00
2019-02-21T15:59:33.093Z,18.73
2019-02-21T16:01:33.948Z,19.13
2019-02-21T16:03:34.783Z,18.33
2019-02-21T16:05:35.625Z,18.37
2019-02-21T16:07:36.476Z,17.80
2019-02-21T16:09:37.402Z,18.10
2019-02-21T16:11:38.229Z,18.13
2019-02-21T16:13:39.739Z,18.17
2019-02-21T16:15:41.316Z,19.87
2019-02-21T16:17:42.177Z,17.53
2019-02-21T16:19:43.016Z,17.77
2019-02-21T16:21:43.897Z,19.03
2019-02-21T16:23:44.733Z,20.23
2019-02-21T16:25:45.577Z,19.50
2019-02-21T16:27:46.433Z,18.27
2019-02-21T16:29:47.273Z,18.57
2019-02-21T16:31:48.104Z,18.90
2019-02-21T16:33:49.236Z,18.80
2019-02-21T16:35:50.079Z,19.50
2019-02-21T16:37:50.904Z,19.53
2019-02-21T16:39:51.744Z,19.70
2019-02-21T16:41:52.584Z,18.43
2019-02-21T16:43:53.441Z,18.63
2019-02-21T16:45:54.305Z,18.33
2019-02-21T16:47:55.566Z,17.73
2019-02-21T16:49:58.312Z,18.17
2019-02-21T16:51:59.792Z,16.67
2019-02-21T16:54:00.637Z,17.33
2019-02-21T16:56:01.491Z,17.33
2019-02-21T16:58:02.341Z,17.97
2019-02-21T17:00:03.188Z,20.27
2019-02-21T17:02:04.377Z,18.57
2019-02-21T17:04:05.213Z,21.27
2019-02-21T17:06:06.070Z,22.10
2019-02-21T17:08:06.909Z,10.43
2019-02-21T17:10:08.103Z,9.53
2019-02-21T17:12:08.969Z,13.37
2019-02-21T17:14:10.328Z,14.80
2019-02-21T17:16:11.201Z,15.10
2019-02-21T17:18:12.066Z,14.30
2019-02-21T17:20:12.924Z,15.47
2019-02-21T17:22:13.759Z,15.40
2019-02-21T17:24:14.697Z,16.47
2019-02-21T17:26:15.545Z,16.50
2019-02-21T17:28:16.419Z,17.80
2019-02-21T17:30:17.289Z,16.87
2019-02-21T17:32:18.229Z,16.70
2019-02-21T17:34:19.272Z,16.60
2019-02-21T17:36:20.285Z,17.47
2019-02-21T17:38:21.227Z,19.23
2019-02-21T17:40:22.178Z,19.40
2019-02-21T17:42:23.102Z,19.07
2019-02-21T17:44:24.132Z,23.50
2019-02-21T17:46:25.675Z,20.77
2019-02-21T17:48:26.538Z,23.50
2019-02-21T17:50:27.381Z,22.80
2019-02-21T17:52:28.241Z,22.30
2019-02-21T17:54:29.106Z,23.97
2019-02-21T17:56:29.948Z,26.80
2019-02-21T17:58:31.401Z,24.53
2019-02-21T18:00:34.823Z,25.93
2019-02-21T18:02:35.724Z,24.87
2019-02-21T18:04:36.584Z,25.27
2019-02-21T18:06:37.445Z,24.60
2019-02-21T18:08:38.264Z,25.93
2019-02-21T18:10:39.109Z,25.83
2019-02-21T18:12:39.952Z,25.80
2019-02-21T18:14:40.809Z,23.97
2019-02-21T18:16:41.660Z,25.07
2019-02-21T18:18:42.628Z,24.40
2019-02-21T18:20:43.559Z,24.43
2019-02-21T18:22:44.598Z,22.27
2019-02-21T18:24:45.513Z,21.53
2019-02-21T18:26:46.636Z,21.40
2019-02-21T18:28:47.497Z,23.43
2019-02-21T18:30:48.332Z,21.70
2019-02-21T18:32:49.620Z,21.97
2019-02-21T18:34:50.780Z,22.47
2019-02-21T18:36:51.633Z,22.10
2019-02-21T18:38:52.476Z,21.13
2019-02-21T18:40:54.589Z,21.53
2019-02-21T18:42:55.544Z,21.37
2019-02-21T18:44:56.400Z,22.07
2019-02-21T18:46:57.280Z,20.40
2019-02-21T18:48:58.194Z,21.53
2019-02-21T18:50:59.096Z,20.63
2019-02-21T18:53:00.035Z,20.30
2019-02-21T18:55:00.884Z,20.53
2019-02-21T18:57:02.001Z,21.73
2019-02-21T18:59:02.837Z,20.30
2019-02-21T19:01:03.976Z,20.47
2019-02-21T19:03:04.841Z,20.17
2019-02-21T19:05:05.692Z,21.17
2019-02-21T19:07:06.564Z,20.63
2019-02-21T19:09:07.392Z,20.23
2019-02-21T19:11:08.540Z,20.70
2019-02-21T19:13:09.485Z,21.03
2019-02-21T19:15:10.330Z,21.77
2019-02-21T19:17:11.226Z,21.87
2019-02-21T19:19:12.088Z,22.97
2019-02-21T19:21:12.919Z,24.37
2019-02-21T19:23:13.758Z,27.57
2019-02-21T19:25:15.198Z,27.23
2019-02-21T19:27:16.137Z,27.43
2019-02-21T19:29:16.994Z,27.57
2019-02-21T19:31:17.844Z,27.77
2019-02-21T19:33:18.681Z,27.07
2019-02-21T19:35:19.517Z,27.17
2019-02-21T19:37:20.368Z,28.90
2019-02-21T19:39:21.195Z,30.03
2019-02-21T19:41:22.037Z,29.63
2019-02-21T19:43:22.868Z,30.27
2019-02-21T19:45:24.037Z,28.67
2019-02-21T19:47:24.899Z,31.40
2019-02-21T19:49:25.750Z,28.83
2019-02-21T19:51:26.588Z,28.30
2019-02-21T19:53:27.451Z,28.27
2019-02-21T19:55:28.289Z,28.43
2019-02-21T19:57:29.149Z,27.87
2019-02-21T19:59:29.999Z,25.23
2019-02-21T20:01:30.821Z,25.40
2019-02-21T20:03:31.649Z,25.30
2019-02-21T20:05:32.497Z,25.70
2019-02-21T20:07:33.332Z,24.43
2019-02-21T20:09:34.169Z,23.33
2019-02-21T20:11:35.997Z,23.07
2019-02-21T20:13:37.088Z,22.53
2019-02-21T20:15:37.944Z,22.03
2019-02-21T20:17:38.808Z,21.20
2019-02-21T20:19:39.647Z,21.97
2019-02-21T20:21:40.498Z,21.73
2019-02-21T20:23:41.335Z,21.80
2019-02-21T20:25:42.191Z,21.23
2019-02-21T20:27:43.025Z,20.83
2019-02-21T20:29:43.890Z,20.67
2019-02-21T20:31:44.764Z,20.47
2019-02-21T20:33:45.598Z,24.77
2019-02-21T20:35:46.460Z,28.53
2019-02-21T20:37:47.388Z,27.17
2019-02-21T20:39:48.592Z,27.30
2019-02-21T20:41:49.453Z,28.47
2019-02-21T20:43:50.377Z,27.93
2019-02-21T20:45:53.365Z,27.67
2019-02-21T20:47:54.307Z,26.47
2019-02-21T20:49:55.155Z,25.33
2019-02-21T20:51:55.972Z,25.87
2019-02-21T20:53:56.828Z,25.90
2019-02-21T20:55:57.992Z,27.03
2019-02-21T20:57:58.841Z,25.27
2019-02-21T20:59:59.693Z,26.70
2019-02-21T21:02:00.525Z,26.87
2019-02-21T21:04:01.373Z,25.67
2019-02-21T21:06:02.204Z,25.53
2019-02-21T21:08:03.043Z,24.93
2019-02-21T21:10:05.331Z,26.13
2019-02-21T21:12:06.188Z,24.20
2019-02-21T21:14:07.048Z,24.53
2019-02-21T21:16:07.904Z,23.57
2019-02-21T21:18:09.145Z,25.10
2019-02-21T21:20:16.559Z,25.57
2019-02-21T21:22:12.776Z,25.43
2019-02-21T21:24:13.629Z,25.37
2019-02-21T21:26:14.489Z,24.83
2019-02-21T21:28:15.634Z,24.27
2019-02-21T21:30:16.484Z,24.37
2019-02-21T21:32:17.350Z,25.40
2019-02-21T21:34:18.172Z,23.53
2019-02-21T21:36:19.048Z,24.30
2019-02-21T21:38:24.302Z,24.87
2019-02-21T21:40:23.628Z,13.38
2019-02-21T21:42:24.589Z,19.20
2019-02-21T21:44:25.445Z,17.03
2019-02-21T21:46:26.444Z,16.33
2019-02-21T21:48:27.269Z,28.05
2019-02-21T21:50:28.229Z,25.33
2019-02-21T21:52:29.512Z,24.93
2019-02-21T21:54:30.354Z,24.70
2019-02-21T21:56:31.213Z,24.97
2019-02-21T21:58:32.142Z,23.90
2019-02-21T22:00:33.086Z,24.03
2019-02-21T22:02:34.011Z,24.97
2019-02-21T22:04:34.960Z,24.77
2019-02-21T22:06:35.889Z,25.60
2019-02-21T22:08:36.709Z,26.23
2019-02-21T22:10:37.544Z,24.90
2019-02-21T22:12:38.404Z,26.03
2019-02-21T22:14:39.254Z,25.37
2019-02-21T22:16:40.157Z,23.53
2019-02-21T22:18:41.026Z,24.60
2019-02-21T22:20:41.861Z,24.20
2019-02-21T22:22:43.065Z,23.70
2019-02-21T22:24:43.969Z,24.93
2019-02-21T22:26:44.796Z,24.83
2019-02-21T22:28:45.721Z,24.67
2019-02-21T22:30:46.574Z,24.73
2019-02-21T22:32:47.445Z,26.00
2019-02-21T22:34:48.370Z,25.37
2019-02-21T22:36:49.192Z,23.50
2019-02-21T22:38:50.060Z,24.33
2019-02-21T22:40:51.252Z,25.53
2019-02-21T22:42:52.110Z,26.30
2019-02-21T22:44:52.965Z,26.83
2019-02-21T22:46:53.798Z,26.63
2019-02-21T22:48:54.633Z,28.10
2019-02-21T22:50:55.497Z,27.70
2019-02-21T22:52:56.344Z,28.40
2019-02-21T22:54:58.499Z,25.33
2019-02-21T22:57:00.015Z,24.30
2019-02-21T22:59:00.855Z,24.90
2019-02-21T23:01:03.529Z,22.97
2019-02-21T23:03:04.492Z,24.83
2019-02-21T23:05:05.551Z,24.77
2019-02-21T23:07:06.433Z,24.57
2019-02-21T23:09:13.282Z,24.13
2019-02-21T23:11:14.319Z,23.90
2019-02-21T23:13:15.766Z,22.43
2019-02-21T23:15:16.605Z,23.70
2019-02-21T23:17:17.556Z,23.83
2019-02-21T23:19:18.469Z,22.87
2019-02-21T23:21:19.407Z,21.17
2019-02-21T23:23:20.249Z,20.07
2019-02-21T23:25:21.077Z,20.97
2019-02-21T23:27:21.929Z,21.57
2019-02-21T23:29:22.800Z,20.33
2019-02-21T23:31:23.627Z,21.97
2019-02-21T23:33:25.486Z,21.90
2019-02-21T23:35:26.640Z,25.00
2019-02-21T23:37:27.468Z,28.00
2019-02-21T23:39:37.999Z,27.77
2019-02-21T23:41:31.109Z,27.73
2019-02-21T23:43:31.932Z,27.67
2019-02-21T23:45:32.949Z,25.43
2019-02-21T23:47:33.832Z,26.80
2019-02-21T23:49:34.644Z,26.60
2019-02-21T23:51:35.496Z,26.53
2019-02-21T23:53:36.336Z,26.83
2019-02-21T23:55:37.197Z,25.63
2019-02-21T23:57:38.369Z,22.47
2019-02-21T23:59:39.205Z,21.07
